Time;durP1;ratioP1;P1;durP2;ratioP2;P2;SDS_P1;SDS_P2;PMS_P1;PMS_P2;Temp;Humidity;BMP_temperature;BMP_pressure;BME280_temperature;BME280_humidity;BME280_pressure;Samples;Min_cycle;Max_cycle;Signal;HPM_P1;HPM_P2
2021/12/31 00:00:46;;;;;;;6.88;2.05;;;;;;;10.58;100.00;99718.19;5032244;28;20056;-88
2021/12/31 00:03:14;;;;;;;4.75;1.75;;;;;;;10.62;100.00;99705.78;5051632;28;20061;-88
2021/12/31 00:05:41;;;;;;;8.98;2.28;;;;;;;10.53;100.00;99708.91;5034610;28;20059;-88
2021/12/31 00:08:08;;;;;;;7.45;2.35;;;;;;;10.58;100.00;99718.19;5028317;28;20046;-88
2021/12/31 00:10:35;;;;;;;8.73;1.92;;;;;;;10.44;100.00;99710.22;5032616;28;20059;-89
2021/12/31 00:13:02;;;;;;;10.00;2.33;;;;;;;10.40;100.00;99706.94;5032841;28;20509;-87
2021/12/31 00:15:29;;;;;;;5.05;1.90;;;;;;;10.38;100.00;99697.50;5015297;28;20049;-87
2021/12/31 00:17:56;;;;;;;8.65;2.40;;;;;;;10.40;100.00;99690.41;5036127;28;20063;-87
2021/12/31 00:20:24;;;;;;;7.13;2.03;;;;;;;10.37;100.00;99686.16;5015414;28;20076;-88
2021/12/31 00:23:09;;;;;;;7.15;1.90;;;;;;;10.38;100.00;99685.25;5031280;28;20053;-87
2021/12/31 00:25:39;;;;;;;8.68;2.08;;;;;;;10.10;100.00;99653.59;5015282;28;20045;-87
2021/12/31 00:28:07;;;;;;;5.90;1.50;;;;;;;10.41;100.00;99681.59;5014090;28;20052;-88
2021/12/31 00:30:35;;;;;;;8.73;2.13;;;;;;;10.23;100.00;99660.72;5015007;28;20049;-87
2021/12/31 00:33:03;;;;;;;8.15;1.85;;;;;;;10.40;100.00;99665.06;5015373;28;20057;-88
2021/12/31 00:35:32;;;;;;;7.45;1.73;;;;;;;10.44;100.00;99670.97;5032092;28;20464;-88
2021/12/31 00:37:59;;;;;;;8.48;1.98;;;;;;;10.56;100.00;99675.56;5031722;28;20050;-88
2021/12/31 00:40:26;;;;;;;11.25;2.30;;;;;;;10.24;100.00;99666.78;5015058;28;20487;-88
2021/12/31 00:42:54;;;;;;;9.98;2.38;;;;;;;10.34;100.00;99696.81;5014740;28;20049;-88
2021/12/31 00:45:24;;;;;;;10.30;3.08;;;;;;;10.43;100.00;99674.53;5014476;28;20049;-87
2021/12/31 00:47:51;;;;;;;8.43;2.10;;;;;;;10.41;100.00;99671.13;5013951;28;20045;-88
2021/12/31 00:50:18;;;;;;;10.27;2.88;;;;;;;10.33;100.00;99682.03;5031212;28;20550;-88
2021/12/31 00:52:45;;;;;;;6.50;2.10;;;;;;;10.33;100.00;99681.19;5032137;28;20403;-88
2021/12/31 00:55:13;;;;;;;14.20;2.92;;;;;;;10.09;100.00;99663.19;5032444;28;20522;-88
2021/12/31 00:57:40;;;;;;;6.55;2.05;;;;;;;9.93;100.00;99657.09;5014103;28;20136;-87
2021/12/31 01:00:10;;;;;;;11.85;2.20;;;;;;;9.86;100.00;99657.44;4995328;28;20476;-87
2021/12/31 01:02:38;;;;;;;9.07;2.20;;;;;;;9.85;100.00;99653.13;5011512;28;20658;-87
2021/12/31 01:05:06;;;;;;;8.38;2.50;;;;;;;10.03;100.00;99669.59;4994872;28;20136;-87
2021/12/31 01:07:33;;;;;;;5.88;1.88;;;;;;;10.04;100.00;99676.53;5011651;28;20050;-87
2021/12/31 01:10:01;;;;;;;5.20;1.70;;;;;;;9.95;100.00;99644.78;5014286;28;20045;-87
2021/12/31 01:12:28;;;;;;;8.50;1.80;;;;;;;9.92;100.00;99648.41;5031809;28;20056;-87
2021/12/31 01:15:00;;;;;;;7.32;1.88;;;;;;;9.99;100.00;99647.16;5014208;28;20050;-87
2021/12/31 01:20:14;;;;;;;12.50;1.83;;;;;;;10.20;100.00;99665.28;5011260;28;20060;-87
2021/12/31 01:22:41;;;;;;;5.00;1.60;;;;;;;10.39;100.00;99667.75;5013503;28;20132;-87
2021/12/31 01:25:09;;;;;;;7.60;1.92;;;;;;;10.24;100.00;99659.78;5014142;28;20057;-87
2021/12/31 01:27:38;;;;;;;7.90;1.75;;;;;;;10.43;100.00;99664.06;5030445;28;20072;-88
2021/12/31 01:30:08;;;;;;;6.43;1.90;;;;;;;10.50;100.00;99665.44;5013842;28;20464;-87
2021/12/31 01:32:35;;;;;;;5.65;1.30;;;;;;;10.43;100.00;99651.81;5031421;28;20052;-86
2021/12/31 01:35:03;;;;;;;5.05;1.40;;;;;;;10.37;100.00;99656.53;5031596;28;20050;-87
2021/12/31 01:37:29;;;;;;;4.25;1.30;;;;;;;10.34;100.00;99672.41;5013853;28;20530;-87
2021/12/31 01:39:56;;;;;;;4.97;1.40;;;;;;;10.31;100.00;99659.47;5030971;28;20120;-87
2021/12/31 01:42:30;;;;;;;6.68;1.75;;;;;;;10.25;100.00;99651.03;5014002;28;20052;-87
2021/12/31 01:45:02;;;;;;;3.97;1.30;;;;;;;10.22;100.00;99653.78;5033561;28;20045;-87
2021/12/31 01:47:46;;;;;;;6.63;1.80;;;;;;;10.14;100.00;99645.50;5033193;28;20053;-87
2021/12/31 01:50:13;;;;;;;6.60;1.90;;;;;;;10.13;100.00;99659.53;5037508;28;20467;-87
2021/12/31 01:52:40;;;;;;;4.00;1.23;;;;;;;10.30;100.00;99648.13;5026432;28;20049;-88
2021/12/31 01:55:10;;;;;;;8.02;1.75;;;;;;;10.17;100.00;99647.13;5013649;28;20462;-88
2021/12/31 01:57:40;;;;;;;5.28;1.60;;;;;;;10.12;100.00;99646.53;5013007;28;20053;-87
2021/12/31 02:00:08;;;;;;;4.93;1.40;;;;;;;10.13;100.00;99629.88;5013325;28;20425;-87
2021/12/31 02:02:35;;;;;;;7.22;1.52;;;;;;;10.17;100.00;99629.66;5017801;28;20052;-87
2021/12/31 02:05:04;;;;;;;8.88;1.80;;;;;;;10.28;100.00;99636.91;5017459;28;20053;-88
2021/12/31 02:07:33;;;;;;;4.80;1.63;;;;;;;10.07;100.00;99581.38;5029912;28;20061;-88
2021/12/31 02:10:00;;;;;;;9.23;1.30;;;;;;;10.28;100.00;99623.84;5034651;28;20060;-88
2021/12/31 02:12:27;;;;;;;7.22;1.40;;;;;;;10.38;100.00;99621.63;5017626;28;20073;-88
2021/12/31 02:14:54;;;;;;;7.90;1.40;;;;;;;10.32;100.00;99625.38;5016765;28;20060;-87
2021/12/31 02:17:21;;;;;;;10.77;1.80;;;;;;;10.16;100.00;99607.03;5034580;28;20122;-88
2021/12/31 02:20:04;;;;;;;4.72;1.50;;;;;;;10.27;100.00;99619.56;5034019;28;20054;-88
2021/12/31 02:22:34;;;;;;;7.55;1.70;;;;;;;10.38;100.00;99613.75;5034899;28;20398;-88
2021/12/31 02:25:01;;;;;;;9.75;1.95;;;;;;;10.39;100.00;99618.06;5016497;28;20050;-88
2021/12/31 02:27:28;;;;;;;5.10;1.48;;;;;;;10.36;100.00;99607.78;5016823;28;20060;-87
2021/12/31 02:29:55;;;;;;;5.60;2.30;;;;;;;10.45;100.00;99608.09;5033500;28;20050;-88
2021/12/31 02:32:22;;;;;;;5.53;1.48;;;;;;;10.47;100.00;99615.03;5034354;28;20708;-88
2021/12/31 02:34:49;;;;;;;6.00;1.63;;;;;;;10.33;100.00;99613.16;5034373;28;20052;-88
2021/12/31 02:37:16;;;;;;;9.20;1.40;;;;;;;10.36;100.00;99611.22;5016986;28;20053;-88
2021/12/31 02:39:43;;;;;;;4.25;1.38;;;;;;;10.25;100.00;99605.69;5015243;28;20060;-88
2021/12/31 02:42:12;;;;;;;10.05;1.85;;;;;;;10.19;100.00;99601.63;5016748;28;20136;-88
2021/12/31 02:44:39;;;;;;;7.43;1.55;;;;;;;10.26;100.00;99613.44;5033950;28;20051;-88
2021/12/31 02:47:07;;;;;;;6.72;1.40;;;;;;;10.34;100.00;99612.22;5016382;28;20049;-88
2021/12/31 02:49:40;;;;;;;8.98;1.60;;;;;;;10.23;100.00;99608.41;5015260;28;20046;-88
2021/12/31 02:52:15;;;;;;;6.60;1.30;;;;;;;10.35;100.00;99611.31;5017220;28;20049;-88
2021/12/31 02:54:46;;;;;;;5.38;1.50;;;;;;;10.35;100.00;99619.16;5016432;28;20057;-88
2021/12/31 02:57:14;;;;;;;5.63;1.45;;;;;;;10.36;100.00;99619.06;5034010;28;20046;-87
2021/12/31 02:59:41;;;;;;;3.20;1.10;;;;;;;10.32;100.00;99620.16;5016450;28;20056;-87
2021/12/31 03:02:08;;;;;;;11.10;1.83;;;;;;;10.34;100.00;99631.41;5015845;28;20057;-87
2021/12/31 03:04:39;;;;;;;6.43;1.58;;;;;;;10.13;100.00;99628.13;5016677;28;20140;-87
2021/12/31 03:07:08;;;;;;;6.35;1.42;;;;;;;9.96;100.00;99638.63;5016683;28;20499;-88
2021/12/31 03:09:38;;;;;;;5.85;1.80;;;;;;;9.77;100.00;99636.13;5032158;28;20045;-87
2021/12/31 03:12:08;;;;;;;6.45;1.60;;;;;;;9.86;100.00;99628.66;5031972;28;20135;-87
2021/12/31 03:14:37;;;;;;;10.38;1.80;;;;;;;9.75;100.00;99623.13;5013253;28;20408;-87
2021/12/31 03:17:05;;;;;;;6.78;1.60;;;;;;;10.03;100.00;99606.00;4996576;28;20042;-87
2021/12/31 03:19:32;;;;;;;6.18;1.55;;;;;;;10.20;100.00;99634.72;5011918;28;20084;-88
2021/12/31 03:21:59;;;;;;;6.40;1.70;;;;;;;10.29;100.00;99633.38;5023821;28;20073;-86
2021/12/31 03:24:26;;;;;;;7.95;1.42;;;;;;;10.24;100.00;99617.94;5014826;28;20042;-88
2021/12/31 03:26:53;;;;;;;6.10;2.00;;;;;;;9.76;100.00;99627.44;5033197;28;20088;-88
2021/12/31 03:29:20;;;;;;;6.38;1.65;;;;;;;9.80;100.00;99621.13;5014340;28;20508;-88
2021/12/31 03:31:47;;;;;;;5.20;1.40;;;;;;;9.57;100.00;99614.47;5015729;28;20087;-88
2021/12/31 03:34:14;;;;;;;6.70;1.52;;;;;;;9.57;100.00;99614.47;5015697;28;20100;-88
2021/12/31 03:36:42;;;;;;;4.93;1.30;;;;;;;9.53;100.00;99591.22;5015657;28;20045;-88
2021/12/31 03:39:09;;;;;;;6.32;1.50;;;;;;;9.59;100.00;99632.69;5014881;28;20046;-87
2021/12/31 03:41:36;;;;;;;5.32;1.35;;;;;;;9.71;100.00;99639.91;5028771;28;20049;-88
2021/12/31 03:44:04;;;;;;;4.97;1.77;;;;;;;9.54;100.00;99627.69;5035529;28;20053;-88
2021/12/31 03:46:31;;;;;;;7.93;1.63;;;;;;;9.50;100.00;99640.06;5035506;28;20045;-88
2021/12/31 03:48:58;;;;;;;6.78;1.90;;;;;;;9.24;100.00;99619.63;5022391;28;20103;-88
2021/12/31 03:51:25;;;;;;;6.07;1.70;;;;;;;9.19;100.00;99635.56;5015702;28;20045;-88
2021/12/31 03:53:52;;;;;;;5.43;1.30;;;;;;;9.34;100.00;99626.09;5015830;28;20598;-88
2021/12/31 03:56:21;;;;;;;3.83;1.40;;;;;;;9.50;100.00;99639.22;5015715;28;20052;-88
2021/12/31 03:58:48;;;;;;;5.47;1.50;;;;;;;9.52;100.00;99634.78;5014472;28;20056;-87
2021/12/31 04:01:15;;;;;;;6.28;1.65;;;;;;;9.56;100.00;99643.31;5031728;28;20175;-86
2021/12/31 04:03:42;;;;;;;5.43;1.70;;;;;;;9.62;100.00;99656.91;5049224;28;20114;-88
2021/12/31 04:06:09;;;;;;;7.32;1.42;;;;;;;9.56;100.00;99656.38;5035088;28;20041;-88
2021/12/31 04:08:36;;;;;;;4.10;1.42;;;;;;;9.50;100.00;99665.38;5042909;28;20084;-87
2021/12/31 04:11:04;;;;;;;4.10;1.30;;;;;;;9.68;100.00;99663.59;5015035;28;20045;-87
2021/12/31 04:13:31;;;;;;;4.78;1.38;;;;;;;9.44;100.00;99665.69;5014943;28;20067;-88
2021/12/31 04:15:58;;;;;;;8.38;2.85;;;;;;;9.43;100.00;99672.66;5031212;28;20400;-87
2021/12/31 04:18:26;;;;;;;5.47;1.42;;;;;;;9.43;100.00;99680.50;5031175;28;20045;-88
2021/12/31 04:20:56;;;;;;;9.43;1.60;;;;;;;9.36;100.00;99665.22;5033401;28;20111;-88
2021/12/31 04:23:32;;;;;;;6.88;1.90;;;;;;;9.40;100.00;99688.50;5030544;28;20068;-87
2021/12/31 04:26:00;;;;;;;4.72;1.45;;;;;;;9.39;100.00;99683.34;5010773;28;20056;-88
2021/12/31 04:28:28;;;;;;;8.25;1.70;;;;;;;9.43;100.00;99680.50;5018570;28;20510;-88
2021/12/31 04:30:56;;;;;;;5.45;1.50;;;;;;;9.43;100.00;99651.75;5013849;28;20049;-88
2021/12/31 04:33:23;;;;;;;5.68;1.50;;;;;;;9.41;100.00;99656.22;5013759;28;20049;-88
2021/12/31 04:35:50;;;;;;;4.28;1.20;;;;;;;9.37;100.00;99662.53;5014807;28;20542;-88
2021/12/31 04:38:16;;;;;;;8.90;1.70;;;;;;;9.24;100.00;99670.13;5013602;28;20479;-88
2021/12/31 04:40:43;;;;;;;7.05;1.40;;;;;;;9.18;100.00;99662.59;5013854;28;20056;-86
2021/12/31 04:43:10;;;;;;;3.90;1.40;;;;;;;9.21;100.00;99666.81;5030996;28;20057;-88
2021/12/31 04:45:36;;;;;;;8.25;1.60;;;;;;;9.11;100.00;99655.97;5031363;28;20060;-88
2021/12/31 04:48:04;;;;;;;9.63;1.77;;;;;;;9.10;100.00;99656.88;5031581;28;20061;-88
2021/12/31 04:50:30;;;;;;;8.50;1.55;;;;;;;9.17;100.00;99670.50;5014970;28;20049;-86
2021/12/31 04:52:58;;;;;;;4.85;1.30;;;;;;;9.09;100.00;99656.03;5014762;28;20744;-87
2021/12/31 04:55:25;;;;;;;8.25;1.73;;;;;;;8.88;100.00;99657.06;5014558;28;20132;-87
2021/12/31 04:57:51;;;;;;;4.32;1.33;;;;;;;8.96;100.00;99652.34;5031431;28;20060;-87
2021/12/31 05:00:18;;;;;;;6.93;1.60;;;;;;;9.15;100.00;99664.50;5021267;28;20451;-87
2021/12/31 05:02:45;;;;;;;5.72;1.60;;;;;;;9.12;100.00;99663.72;5051709;28;20049;-86
2021/12/31 05:05:12;;;;;;;4.22;1.45;;;;;;;9.03;100.00;99651.13;5030944;28;20053;-87
2021/12/31 05:07:39;;;;;;;4.50;1.38;;;;;;;8.88;100.00;99630.97;5018020;28;20052;-88
2021/12/31 05:10:07;;;;;;;6.50;1.40;;;;;;;9.15;100.00;99659.28;5024993;28;20063;-88
2021/12/31 05:12:37;;;;;;;5.22;1.88;;;;;;;9.21;100.00;99656.38;5045956;28;20057;-87
2021/12/31 05:15:09;;;;;;;8.00;1.45;;;;;;;9.26;100.00;99657.84;5017244;28;20517;-86
2021/12/31 05:17:37;;;;;;;8.90;2.37;;;;;;;8.81;100.00;99661.75;5013086;28;20076;-86
2021/12/31 05:20:05;;;;;;;5.53;1.60;;;;;;;8.60;100.00;99668.81;5041723;28;21006;-86
2021/12/31 05:22:33;;;;;;;11.13;1.77;;;;;;;8.90;100.00;99657.84;5019067;28;20080;-85
2021/12/31 05:25:00;;;;;;;7.93;1.35;;;;;;;8.97;100.00;99659.25;5034967;28;20144;-86
2021/12/31 05:27:26;;;;;;;5.55;1.55;;;;;;;9.01;100.00;99662.56;5030454;28;20057;-86
2021/12/31 05:29:53;;;;;;;6.32;1.65;;;;;;;9.00;100.00;99653.03;5019926;28;20820;-87
2021/12/31 05:32:20;;;;;;;3.53;1.30;;;;;;;8.83;100.00;99652.06;5022286;28;20128;-86
2021/12/31 05:34:47;;;;;;;7.82;1.55;;;;;;;8.85;100.00;99644.16;5033857;28;20471;-86
2021/12/31 05:37:13;;;;;;;6.30;1.33;;;;;;;9.04;100.00;99660.63;5037639;28;20407;-86
2021/12/31 05:39:40;;;;;;;7.45;2.03;;;;;;;9.06;100.00;99660.56;5033762;28;20056;-86
2021/12/31 05:42:07;;;;;;;5.03;1.40;;;;;;;9.03;100.00;99664.19;5031278;28;20475;-86
2021/12/31 05:44:33;;;;;;;6.78;1.50;;;;;;;8.97;100.00;99653.19;5016917;28;20052;-85
2021/12/31 05:47:03;;;;;;;6.43;2.08;;;;;;;9.11;100.00;99669.03;5011727;28;20376;-86
2021/12/31 05:49:30;;;;;;;7.00;1.70;;;;;;;9.14;100.00;99655.81;5033750;28;20368;-86
2021/12/31 05:51:57;;;;;;;3.80;1.40;;;;;;;9.38;100.00;99653.75;5034261;28;20129;-85
2021/12/31 05:54:24;;;;;;;5.72;1.50;;;;;;;9.38;100.00;99661.59;5017232;28;20081;-85
2021/12/31 05:56:51;;;;;;;5.95;1.33;;;;;;;9.41;100.00;99637.94;5016759;28;20525;-86
2021/12/31 05:59:18;;;;;;;9.15;2.03;;;;;;;8.89;100.00;99632.69;5010611;28;20061;-85
2021/12/31 06:01:46;;;;;;;6.30;1.45;;;;;;;9.19;100.00;99637.31;5034879;28;20053;-85
2021/12/31 06:04:13;;;;;;;7.70;1.52;;;;;;;9.30;100.00;99642.84;5017251;28;20106;-85
2021/12/31 06:06:39;;;;;;;5.78;1.50;;;;;;;9.28;100.00;99639.47;5016041;28;20128;-85
2021/12/31 06:09:11;;;;;;;7.43;1.42;;;;;;;9.09;100.00;99642.16;5024974;28;20056;-86
2021/12/31 06:11:42;;;;;;;5.00;1.55;;;;;;;9.08;100.00;99662.19;5016658;28;20483;-86
2021/12/31 06:14:10;;;;;;;6.53;1.52;;;;;;;9.03;100.00;99656.34;5016167;28;20388;-86
2021/12/31 06:16:42;;;;;;;6.10;1.50;;;;;;;9.10;100.00;99659.47;5030630;28;20055;-86
2021/12/31 06:19:11;;;;;;;6.65;1.70;;;;;;;9.08;100.00;99653.50;5015239;28;20056;-86
2021/12/31 06:21:40;;;;;;;7.05;1.60;;;;;;;9.13;100.00;99660.19;5015691;28;20045;-85
2021/12/31 06:24:08;;;;;;;7.93;1.90;;;;;;;9.06;100.00;99663.19;5031701;28;20053;-86
2021/12/31 06:26:35;;;;;;;9.07;2.20;;;;;;;8.79;100.00;99660.97;5026074;28;20060;-85
2021/12/31 06:29:03;;;;;;;6.90;1.50;;;;;;;8.97;100.00;99651.41;5014951;28;20048;-86
2021/12/31 06:31:30;;;;;;;6.38;1.80;;;;;;;9.08;100.00;99667.44;5015785;28;20057;-86
2021/12/31 06:33:57;;;;;;;9.27;2.15;;;;;;;9.17;100.00;99681.81;5016267;28;20525;-86
2021/12/31 06:36:24;;;;;;;7.50;1.83;;;;;;;9.13;100.00;99675.84;5016448;28;20052;-86
2021/12/31 06:38:51;;;;;;;3.88;1.45;;;;;;;9.12;100.00;99670.72;5015204;28;20053;-86
2021/12/31 06:41:20;;;;;;;5.80;1.60;;;;;;;9.18;100.00;99688.69;5016212;28;20144;-86
2021/12/31 06:43:47;;;;;;;6.93;1.67;;;;;;;9.12;100.00;99671.56;5016243;28;20148;-86
2021/12/31 06:46:14;;;;;;;6.20;1.63;;;;;;;9.18;100.00;99683.47;5015833;28;20144;-86
2021/12/31 06:48:41;;;;;;;4.85;1.50;;;;;;;9.18;100.00;99678.25;5032688;28;20053;-85
2021/12/31 06:51:09;;;;;;;9.10;1.88;;;;;;;9.28;100.00;99681.28;5015834;28;20427;-85
2021/12/31 06:53:36;;;;;;;5.38;1.42;;;;;;;9.34;100.00;99677.50;5045020;28;20487;-86
2021/12/31 06:56:03;;;;;;;5.57;1.48;;;;;;;9.48;100.00;99690.72;5015708;28;20049;-85
2021/12/31 06:58:30;;;;;;;4.57;1.48;;;;;;;9.43;100.00;99695.34;5032617;28;20388;-85
2021/12/31 07:00:57;;;;;;;6.80;1.70;;;;;;;9.32;100.00;99686.25;5033629;28;20053;-85
2021/12/31 07:03:24;;;;;;;6.30;1.45;;;;;;;9.42;100.00;99694.50;5016058;28;20136;-85
2021/12/31 07:05:50;;;;;;;3.50;1.23;;;;;;;9.41;100.00;99690.19;5016072;28;20054;-85
2021/12/31 07:08:21;;;;;;;6.30;1.50;;;;;;;9.29;100.00;99673.34;5032747;28;20052;-86
2021/12/31 07:10:48;;;;;;;6.00;2.08;;;;;;;9.57;100.00;99699.88;5015819;28;20056;-86
2021/12/31 07:13:15;;;;;;;4.32;1.38;;;;;;;9.53;100.00;99688.75;5026006;28;20041;-86
2021/12/31 07:15:48;;;;;;;3.50;1.20;;;;;;;9.63;100.00;99692.59;5012349;28;20050;-86
2021/12/31 07:18:16;;;;;;;;;;;;;;;9.70;100.00;99698.31;5031395;28;20042;-85
2021/12/31 07:20:44;;;;;;;1.63;1.00;;;;;;;9.53;100.00;99667.00;5015387;28;20422;-85
2021/12/31 07:23:13;;;;;;;4.95;1.38;;;;;;;9.29;100.00;99667.28;5015799;28;20045;-86
2021/12/31 07:25:40;;;;;;;6.40;1.58;;;;;;;9.37;100.00;99683.44;5032219;28;20050;-85
2021/12/31 07:28:09;;;;;;;8.32;1.90;;;;;;;9.42;100.00;99673.59;5031620;28;20047;-85
2021/12/31 07:30:36;;;;;;;3.67;1.40;;;;;;;9.54;100.00;99693.03;5018917;28;20521;-86
2021/12/31 07:33:03;;;;;;;4.57;1.40;;;;;;;9.56;100.00;99680.75;5023301;28;20167;-85
2021/12/31 07:35:31;;;;;;;7.63;1.92;;;;;;;9.44;100.00;99668.31;5030649;28;20053;-87
2021/12/31 07:38:01;;;;;;;9.23;1.88;;;;;;;9.48;100.00;99675.88;5020064;28;20041;-85
2021/12/31 07:40:39;;;;;;;8.40;1.85;;;;;;;9.41;100.00;99650.16;5015528;28;20398;-85
2021/12/31 07:43:07;;;;;;;6.57;1.83;;;;;;;9.50;100.00;99673.22;5031773;28;20045;-85
2021/12/31 07:45:35;;;;;;;6.15;1.70;;;;;;;9.28;100.00;99652.53;5015194;28;20053;-86
2021/12/31 07:48:03;;;;;;;6.38;2.10;;;;;;;9.45;100.00;99669.97;5013847;28;20478;-86
2021/12/31 07:50:31;;;;;;;7.00;1.77;;;;;;;9.30;100.00;99679.44;5015844;28;20132;-85
2021/12/31 07:52:58;;;;;;;4.35;1.80;;;;;;;9.29;100.00;99675.13;5032552;28;20132;-85
2021/12/31 07:55:25;;;;;;;4.03;1.60;;;;;;;9.44;100.00;99695.25;5032738;28;20060;-84
2021/12/31 07:57:52;;;;;;;7.10;1.63;;;;;;;9.24;100.00;99670.13;5017179;28;20446;-84
2021/12/31 08:00:18;;;;;;;6.93;2.00;;;;;;;9.49;100.00;99713.31;5032784;28;20054;-85
2021/12/31 08:02:45;;;;;;;6.20;1.60;;;;;;;9.39;100.00;99715.53;5040947;28;20136;-84
2021/12/31 08:05:12;;;;;;;9.95;2.10;;;;;;;9.48;100.00;99722.91;5040725;28;20048;-84
2021/12/31 08:07:39;;;;;;;7.65;1.73;;;;;;;9.31;100.00;99686.31;5022510;28;20135;-84
2021/12/31 08:10:07;;;;;;;6.82;1.80;;;;;;;9.22;100.00;99687.63;5024064;28;20052;-83
2021/12/31 08:12:53;;;;;;;7.18;1.60;;;;;;;9.13;100.00;99706.34;5024266;28;20056;-85
2021/12/31 08:15:21;;;;;;;6.55;1.67;;;;;;;9.55;100.00;99749.59;5033754;28;20137;-86
2021/12/31 08:17:47;;;;;;;6.72;1.77;;;;;;;9.58;100.00;99754.69;5022028;28;20049;-86
2021/12/31 08:20:15;;;;;;;6.22;1.48;;;;;;;9.76;100.00;99749.47;5023120;28;20049;-86
2021/12/31 08:22:42;;;;;;;6.82;1.67;;;;;;;9.73;100.00;99750.47;5057578;28;20080;-87
2021/12/31 08:25:12;;;;;;;8.02;1.67;;;;;;;9.67;100.00;99763.84;5029555;28;20120;-88
2021/12/31 08:27:39;;;;;;;8.07;1.52;;;;;;;9.60;100.00;99711.03;5033906;28;20051;-86
2021/12/31 08:30:08;;;;;;;7.13;1.63;;;;;;;9.63;100.00;99725.69;5050562;28;20065;-86
2021/12/31 08:32:35;;;;;;;11.70;2.00;;;;;;;10.06;100.00;99778.47;5027733;28;20053;-86
2021/12/31 08:35:08;;;;;;;9.95;1.98;;;;;;;10.02;100.00;99772.53;5022629;28;20053;-86
2021/12/31 08:37:38;;;;;;;10.50;1.80;;;;;;;10.15;100.00;99780.59;5036256;28;20051;-86
2021/12/31 08:40:06;;;;;;;3.40;1.35;;;;;;;10.03;100.00;99752.47;5016704;28;20049;-86
2021/12/31 08:42:33;;;;;;;9.50;2.60;;;;;;;9.76;100.00;99739.84;5043420;28;20124;-86
2021/12/31 08:45:01;;;;;;;5.93;2.05;;;;;;;9.91;100.00;99768.75;5047949;28;20536;-86
2021/12/31 08:47:28;;;;;;;8.75;2.70;;;;;;;9.48;100.00;99746.44;5023186;28;20064;-86
2021/12/31 08:49:55;;;;;;;6.55;2.20;;;;;;;9.35;100.00;99747.09;5023659;28;20076;-86
2021/12/31 08:52:22;;;;;;;6.40;1.60;;;;;;;9.25;100.00;99737.09;5031844;28;20502;-87
2021/12/31 08:54:50;;;;;;;7.15;1.77;;;;;;;9.25;100.00;99773.66;5039777;28;20072;-87
2021/12/31 08:57:17;;;;;;;6.43;1.55;;;;;;;9.10;100.00;99740.44;5039368;28;20049;-86
2021/12/31 08:59:44;;;;;;;8.98;1.77;;;;;;;9.04;100.00;99761.63;5044264;28;20053;-86
2021/12/31 09:02:13;;;;;;;8.32;2.63;;;;;;;9.03;100.00;99766.00;5018634;28;20045;-86
2021/12/31 09:04:40;;;;;;;9.50;1.80;;;;;;;8.79;100.00;99712.34;5027870;28;20049;-87
2021/12/31 09:07:07;;;;;;;10.70;2.65;;;;;;;9.32;100.00;99771.63;5043259;28;20041;-88
2021/12/31 09:09:36;;;;;;;7.57;1.67;;;;;;;9.18;100.00;99737.47;5046442;28;20071;-86
2021/12/31 09:12:05;;;;;;;7.70;1.60;;;;;;;9.35;100.00;99729.69;5032489;28;20063;-89
2021/12/31 09:14:32;;;;;;;8.82;1.63;;;;;;;9.31;100.00;99742.06;5033259;28;20049;-89
2021/12/31 09:17:13;;;;;;;8.68;1.85;;;;;;;9.36;100.00;99756.66;5036449;28;20048;-89
2021/12/31 09:19:53;;;;;;;10.55;2.00;;;;;;;9.54;100.00;99791.50;5029301;28;20089;-90
2021/12/31 09:22:34;;;;;;;9.43;1.75;;;;;;;9.56;100.00;99790.50;5028268;28;20065;-85
2021/12/31 09:25:03;;;;;;;8.27;1.85;;;;;;;9.24;100.00;99752.84;5041142;28;20043;-88
2021/12/31 09:27:44;;;;;;;8.82;2.10;;;;;;;9.60;100.00;99817.34;5033083;28;20045;-89
2021/12/31 09:30:19;;;;;;;9.40;1.90;;;;;;;9.29;100.00;99769.16;5015935;28;20049;-89
2021/12/31 09:33:00;;;;;;;5.30;1.60;;;;;;;9.44;100.00;99804.16;5044764;28;20059;-85
2021/12/31 09:35:27;;;;;;;5.82;1.88;;;;;;;9.44;100.00;99773.66;5044851;28;20058;-87
2021/12/31 09:37:56;;;;;;;8.18;1.95;;;;;;;9.79;100.00;99828.59;5041707;28;20068;-87
2021/12/31 09:40:23;;;;;;;4.95;1.50;;;;;;;9.71;100.00;99814.22;5035950;28;20042;-88
2021/12/31 09:42:59;;;;;;;7.00;1.90;;;;;;;9.56;100.00;99813.16;5025468;28;20480;-87
2021/12/31 09:45:28;;;;;;;16.30;2.00;;;;;;;9.83;100.00;99844.97;5024860;28;20148;-84
2021/12/31 09:47:59;;;;;;;6.03;1.67;;;;;;;9.72;100.00;99832.44;5037192;28;20113;-88
2021/12/31 09:50:27;;;;;;;7.15;1.92;;;;;;;9.66;100.00;99841.38;5055544;28;20111;-88
2021/12/31 09:53:02;;;;;;;14.00;7.03;;;;;;;9.35;100.00;99830.69;5051357;28;20052;-90
2021/12/31 09:55:45;;;;;;;16.38;3.45;;;;;;;9.67;100.00;99855.34;5051540;28;20065;-89
2021/12/31 09:58:16;;;;;;;8.68;2.33;;;;;;;9.47;100.00;99820.53;5039532;28;20105;-90
2021/12/31 10:01:01;;;;;;;5.43;1.97;;;;;;;9.64;100.00;99822.31;5040421;28;20136;-89
2021/12/31 10:03:54;;;;;;;9.70;2.13;;;;;;;9.81;100.00;99845.06;5040988;28;20057;-89
2021/12/31 10:06:24;;;;;;;8.98;2.38;;;;;;;9.98;100.00;99879.97;5054739;28;20072;-90
2021/12/31 10:08:57;;;;;;;7.97;2.45;;;;;;;9.83;100.00;99856.28;5050211;28;20053;-89
2021/12/31 10:11:26;;;;;;;8.73;1.63;;;;;;;10.10;100.00;99876.75;5036942;28;20553;-89
2021/12/31 10:14:07;;;;;;;8.93;1.83;;;;;;;9.92;100.00;99868.06;5024802;28;20060;-88
2021/12/31 10:16:47;;;;;;;7.65;2.33;;;;;;;9.95;100.00;99875.75;5040076;28;20048;-89
2021/12/31 10:19:28;;;;;;;7.22;2.17;;;;;;;9.97;100.00;99879.13;5030749;28;20060;-90
2021/12/31 10:21:59;;;;;;;8.68;2.20;;;;;;;9.95;100.00;99872.28;5049522;28;20057;-90
2021/12/31 10:24:40;;;;;;;6.65;2.13;;;;;;;10.01;100.00;99883.28;5059036;28;20059;-90
2021/12/31 10:27:20;;;;;;;8.82;2.60;;;;;;;10.14;100.00;99882.69;5038479;28;20049;-89
2021/12/31 10:30:05;;;;;;;6.45;2.20;;;;;;;10.21;100.00;99895.38;5052125;28;20072;-90
2021/12/31 10:32:40;;;;;;;7.05;1.77;;;;;;;10.21;100.00;99861.38;5041404;28;20085;-90
2021/12/31 10:35:14;;;;;;;6.47;2.17;;;;;;;10.12;100.00;99872.31;5031844;28;20041;-88
2021/12/31 10:37:58;;;;;;;9.27;1.92;;;;;;;10.17;100.00;99890.41;5050528;28;20041;-90
2021/12/31 10:40:45;;;;;;;6.35;2.00;;;;;;;9.93;100.00;99840.13;5036624;28;20140;-89
2021/12/31 10:43:29;;;;;;;6.88;2.05;;;;;;;10.08;100.00;99869.00;5040312;28;20076;-88
2021/12/31 10:46:04;;;;;;;12.73;2.33;;;;;;;9.91;100.00;99839.38;5037794;28;20048;-86
2021/12/31 10:48:49;;;;;;;7.35;1.98;;;;;;;10.20;100.00;99851.84;5022810;28;20049;-87
2021/12/31 10:51:19;;;;;;;18.92;2.97;;;;;;;10.23;100.00;99851.69;5022721;28;20073;-85
2021/12/31 10:53:51;;;;;;;8.82;2.15;;;;;;;10.19;100.00;99817.91;5030096;28;20377;-87
2021/12/31 10:56:39;;;;;;;10.00;2.15;;;;;;;10.31;100.00;99809.47;5026887;28;20053;-87
2021/12/31 10:59:13;;;;;;;7.85;2.10;;;;;;;10.55;100.00;99838.78;5029973;28;20460;-86
2021/12/31 11:01:40;;;;;;;11.70;2.38;;;;;;;10.61;100.00;99858.56;5046768;28;20056;-86
2021/12/31 11:04:10;;;;;;;9.10;2.28;;;;;;;10.40;100.00;99847.41;5034412;28;20140;-86
2021/12/31 11:06:40;;;;;;;10.00;2.25;;;;;;;10.51;100.00;99866.00;5039014;28;20467;-86
2021/12/31 11:09:07;;;;;;;9.43;2.17;;;;;;;10.37;100.00;99832.69;5019773;28;20049;-86
2021/12/31 11:11:35;;;;;;;8.98;2.55;;;;;;;10.25;100.00;99828.06;5036105;28;20049;-85
2021/12/31 11:14:03;;;;;;;11.95;2.60;;;;;;;10.43;100.00;99860.34;4997182;28;1249592;-85
2021/12/31 11:16:30;;;;;;;8.07;2.20;;;;;;;10.42;100.00;99856.84;5039254;28;20071;-87
2021/12/31 11:18:57;;;;;;;9.88;2.58;;;;;;;10.57;100.00;99885.78;5020121;28;20056;-86
2021/12/31 11:21:25;;;;;;;11.70;2.45;;;;;;;10.63;100.00;99873.25;5041083;28;20055;-86
2021/12/31 11:23:52;;;;;;;8.68;2.90;;;;;;;10.50;100.00;99832.94;5013093;28;20108;-85
2021/12/31 11:26:28;;;;;;;11.27;4.65;;;;;;;10.53;100.00;99861.53;5017880;28;20561;-86
2021/12/31 11:28:55;;;;;;;11.52;4.03;;;;;;;10.72;100.00;99903.34;5039299;28;20128;-87
2021/12/31 11:31:24;;;;;;;13.10;4.13;;;;;;;10.93;100.00;99926.72;5022285;28;20498;-86
2021/12/31 11:33:57;;;;;;;10.45;4.50;;;;;;;10.90;100.00;99924.25;5035524;28;20103;-85
2021/12/31 11:36:37;;;;;;;14.48;5.18;;;;;;;11.02;100.00;99941.97;5029459;28;20474;-86
2021/12/31 11:39:17;;;;;;;16.33;5.40;;;;;;;11.08;100.00;99933.78;5035928;28;20069;-85
2021/12/31 11:41:52;;;;;;;13.10;5.57;;;;;;;11.06;100.00;99905.97;5036099;28;20049;-86